sensor_id;sensor_type;location;lat;lon;timestamp;temperature;humidity
40816;DHT22;26535;48.788;9.214;2023-07-31T00:00:32;16.60;92.50
40816;DHT22;26535;48.788;9.214;2023-07-31T00:02:58;16.60;92.50
40816;DHT22;26535;48.788;9.214;2023-07-31T00:05:24;16.50;92.30
40816;DHT22;26535;48.788;9.214;2023-07-31T00:07:49;16.60;92.00
40816;DHT22;26535;48.788;9.214;2023-07-31T00:10:15;16.60;92.10
40816;DHT22;26535;48.788;9.214;2023-07-31T00:12:43;16.60;92.10
40816;DHT22;26535;48.788;9.214;2023-07-31T00:15:09;16.70;91.80
40816;DHT22;26535;48.788;9.214;2023-07-31T00:17:35;16.70;91.70
40816;DHT22;26535;48.788;9.214;2023-07-31T00:20:01;16.70;91.60
40816;DHT22;26535;48.788;9.214;2023-07-31T00:22:27;16.70;91.70
40816;DHT22;26535;48.788;9.214;2023-07-31T00:24:53;16.70;91.70
40816;DHT22;26535;48.788;9.214;2023-07-31T00:27:19;16.70;91.80
40816;DHT22;26535;48.788;9.214;2023-07-31T00:29:44;16.70;91.90
40816;DHT22;26535;48.788;9.214;2023-07-31T05:57:02;18.60;89.30
40816;DHT22;26535;48.788;9.214;2023-07-31T05:59:28;18.80;87.30
40816;DHT22;26535;48.788;9.214;2023-07-31T06:01:53;18.80;87.10
40816;DHT22;26535;48.788;9.214;2023-07-31T06:04:19;18.90;86.80
40816;DHT22;26535;48.788;9.214;2023-07-31T06:06:45;19.00;87.00
40816;DHT22;26535;48.788;9.214;2023-07-31T06:09:10;19.10;86.40
40816;DHT22;26535;48.788;9.214;2023-07-31T06:11:37;19.00;86.70
40816;DHT22;26535;48.788;9.214;2023-07-31T06:14:02;19.00;86.80
40816;DHT22;26535;48.788;9.214;2023-07-31T06:16:28;19.00;86.80
40816;DHT22;26535;48.788;9.214;2023-07-31T06:18:54;19.20;86.80
40816;DHT22;26535;48.788;9.214;2023-07-31T06:21:20;19.20;86.70
40816;DHT22;26535;48.788;9.214;2023-07-31T06:23:45;19.40;86.30
40816;DHT22;26535;48.788;9.214;2023-07-31T06:26:11;19.50;85.80
40816;DHT22;26535;48.788;9.214;2023-07-31T06:28:36;19.60;85.00
40816;DHT22;26535;48.788;9.214;2023-07-31T06:31:02;19.70;84.50
40816;DHT22;26535;48.788;9.214;2023-07-31T06:33:28;19.90;84.20
40816;DHT22;26535;48.788;9.214;2023-07-31T06:35:54;19.90;83.50
40816;DHT22;26535;48.788;9.214;2023-07-31T06:38:24;20.00;82.70
40816;DHT22;26535;48.788;9.214;2023-07-31T06:40:50;20.00;82.70
40816;DHT22;26535;48.788;9.214;2023-07-31T06:43:16;20.10;82.70
40816;DHT22;26535;48.788;9.214;2023-07-31T06:45:41;20.10;82.50
40816;DHT22;26535;48.788;9.214;2023-07-31T06:48:07;20.10;82.50
40816;DHT22;26535;48.788;9.214;2023-07-31T06:50:33;20.20;82.70
40816;DHT22;26535;48.788;9.214;2023-07-31T06:52:59;20.20;82.10
40816;DHT22;26535;48.788;9.214;2023-07-31T06:55:25;20.40;82.30
40816;DHT22;26535;48.788;9.214;2023-07-31T06:57:53;20.50;81.80
40816;DHT22;26535;48.788;9.214;2023-07-31T07:00:19;20.70;81.00
40816;DHT22;26535;48.788;9.214;2023-07-31T07:02:45;20.70;80.70
40816;DHT22;26535;48.788;9.214;2023-07-31T07:05:13;20.70;80.80
40816;DHT22;26535;48.788;9.214;2023-07-31T07:07:39;20.80;79.70
40816;DHT22;26535;48.788;9.214;2023-07-31T07:10:05;20.70;80.80
40816;DHT22;26535;48.788;9.214;2023-07-31T07:12:32;20.90;80.50
40816;DHT22;26535;48.788;9.214;2023-07-31T07:14:58;21.00;79.60
40816;DHT22;26535;48.788;9.214;2023-07-31T07:17:24;21.00;80.30
40816;DHT22;26535;48.788;9.214;2023-07-31T07:19:50;21.20;79.80
40816;DHT22;26535;48.788;9.214;2023-07-31T07:22:16;21.30;78.70
40816;DHT22;26535;48.788;9.214;2023-07-31T07:24:42;21.40;78.00
40816;DHT22;26535;48.788;9.214;2023-07-31T07:27:07;21.60;78.10
40816;DHT22;26535;48.788;9.214;2023-07-31T07:29:37;21.50;77.90
40816;DHT22;26535;48.788;9.214;2023-07-31T07:32:04;21.60;77.60
40816;DHT22;26535;48.788;9.214;2023-07-31T07:34:29;21.50;77.50
40816;DHT22;26535;48.788;9.214;2023-07-31T07:36:55;21.40;77.70
40816;DHT22;26535;48.788;9.214;2023-07-31T07:39:21;21.50;78.00
40816;DHT22;26535;48.788;9.214;2023-07-31T07:41:47;21.50;78.10
40816;DHT22;26535;48.788;9.214;2023-07-31T07:44:13;21.60;77.60
40816;DHT22;26535;48.788;9.214;2023-07-31T07:46:39;21.60;77.60
40816;DHT22;26535;48.788;9.214;2023-07-31T07:49:05;21.50;77.60
40816;DHT22;26535;48.788;9.214;2023-07-31T07:51:31;21.40;78.00
40816;DHT22;26535;48.788;9.214;2023-07-31T07:53:57;21.30;78.20
40816;DHT22;26535;48.788;9.214;2023-07-31T07:56:25;21.30;78.40
40816;DHT22;26535;48.788;9.214;2023-07-31T07:58:51;21.30;79.30
40816;DHT22;26535;48.788;9.214;2023-07-31T08:01:17;21.40;78.80
40816;DHT22;26535;48.788;9.214;2023-07-31T08:03:43;21.20;78.80
40816;DHT22;26535;48.788;9.214;2023-07-31T08:06:09;21.20;78.90
40816;DHT22;26535;48.788;9.214;2023-07-31T08:08:36;21.30;77.90
40816;DHT22;26535;48.788;9.214;2023-07-31T08:11:02;21.40;78.40
40816;DHT22;26535;48.788;9.214;2023-07-31T08:13:27;21.50;77.60
40816;DHT22;26535;48.788;9.214;2023-07-31T08:15:53;21.30;78.10
40816;DHT22;26535;48.788;9.214;2023-07-31T08:18:19;21.30;77.50
40816;DHT22;26535;48.788;9.214;2023-07-31T08:20:45;21.30;78.40
40816;DHT22;26535;48.788;9.214;2023-07-31T08:23:11;21.30;78.50
40816;DHT22;26535;48.788;9.214;2023-07-31T08:25:37;21.50;78.30
40816;DHT22;26535;48.788;9.214;2023-07-31T08:28:04;21.50;78.50
40816;DHT22;26535;48.788;9.214;2023-07-31T08:30:30;21.60;77.00
40816;DHT22;26535;48.788;9.214;2023-07-31T08:32:56;21.60;77.30
40816;DHT22;26535;48.788;9.214;2023-07-31T08:35:22;21.80;77.30
40816;DHT22;26535;48.788;9.214;2023-07-31T08:37:48;21.90;76.60
40816;DHT22;26535;48.788;9.214;2023-07-31T08:40:13;22.10;76.00
40816;DHT22;26535;48.788;9.214;2023-07-31T08:42:52;22.20;76.20
40816;DHT22;26535;48.788;9.214;2023-07-31T08:45:19;22.40;75.70
40816;DHT22;26535;48.788;9.214;2023-07-31T08:47:47;22.60;74.70
40816;DHT22;26535;48.788;9.214;2023-07-31T08:50:14;22.40;74.80
40816;DHT22;26535;48.788;9.214;2023-07-31T08:52:40;22.30;75.20
40816;DHT22;26535;48.788;9.214;2023-07-31T08:55:07;22.40;74.60
40816;DHT22;26535;48.788;9.214;2023-07-31T08:57:36;22.20;74.90
40816;DHT22;26535;48.788;9.214;2023-07-31T09:00:04;22.40;75.40
40816;DHT22;26535;48.788;9.214;2023-07-31T09:02:51;22.40;75.80
40816;DHT22;26535;48.788;9.214;2023-07-31T09:05:19;22.70;75.40
40816;DHT22;26535;48.788;9.214;2023-07-31T09:07:48;22.90;74.20
40816;DHT22;26535;48.788;9.214;2023-07-31T09:10:14;23.00;74.00
40816;DHT22;26535;48.788;9.214;2023-07-31T09:12:40;23.40;74.00
40816;DHT22;26535;48.788;9.214;2023-07-31T09:15:06;23.60;73.40
40816;DHT22;26535;48.788;9.214;2023-07-31T09:17:41;23.50;71.70
40816;DHT22;26535;48.788;9.214;2023-07-31T09:22:39;23.50;72.30
40816;DHT22;26535;48.788;9.214;2023-07-31T09:25:21;23.70;72.60
40816;DHT22;26535;48.788;9.214;2023-07-31T09:30:14;23.90;71.50
40816;DHT22;26535;48.788;9.214;2023-07-31T09:32:39;23.80;72.20
40816;DHT22;26535;48.788;9.214;2023-07-31T09:35:28;23.90;71.50
40816;DHT22;26535;48.788;9.214;2023-07-31T09:37:57;23.60;71.70
40816;DHT22;26535;48.788;9.214;2023-07-31T09:40:33;23.70;72.10
40816;DHT22;26535;48.788;9.214;2023-07-31T09:43:07;23.60;72.10
40816;DHT22;26535;48.788;9.214;2023-07-31T09:45:37;23.50;73.20
40816;DHT22;26535;48.788;9.214;2023-07-31T09:48:03;23.60;72.50
40816;DHT22;26535;48.788;9.214;2023-07-31T09:50:31;23.40;73.10
40816;DHT22;26535;48.788;9.214;2023-07-31T09:52:57;23.30;73.80
40816;DHT22;26535;48.788;9.214;2023-07-31T09:55:24;23.40;72.70
40816;DHT22;26535;48.788;9.214;2023-07-31T09:57:51;23.70;73.40
40816;DHT22;26535;48.788;9.214;2023-07-31T10:00:18;23.70;72.00
40816;DHT22;26535;48.788;9.214;2023-07-31T10:02:45;24.10;72.70
40816;DHT22;26535;48.788;9.214;2023-07-31T10:05:13;24.40;72.00
40816;DHT22;26535;48.788;9.214;2023-07-31T10:07:54;24.60;70.90
40816;DHT22;26535;48.788;9.214;2023-07-31T10:10:21;24.40;70.80
40816;DHT22;26535;48.788;9.214;2023-07-31T10:12:52;24.00;72.40
40816;DHT22;26535;48.788;9.214;2023-07-31T10:15:18;24.10;70.40
40816;DHT22;26535;48.788;9.214;2023-07-31T10:17:48;24.00;70.50
40816;DHT22;26535;48.788;9.214;2023-07-31T10:20:15;24.10;70.60
40816;DHT22;26535;48.788;9.214;2023-07-31T10:22:44;24.20;70.30
40816;DHT22;26535;48.788;9.214;2023-07-31T10:25:14;24.50;70.00
40816;DHT22;26535;48.788;9.214;2023-07-31T10:27:40;24.50;69.80
40816;DHT22;26535;48.788;9.214;2023-07-31T10:30:09;24.60;69.70
40816;DHT22;26535;48.788;9.214;2023-07-31T10:32:38;24.60;69.20
40816;DHT22;26535;48.788;9.214;2023-07-31T10:35:07;24.40;69.30
40816;DHT22;26535;48.788;9.214;2023-07-31T10:37:41;24.30;71.00
40816;DHT22;26535;48.788;9.214;2023-07-31T10:40:16;24.70;69.90
40816;DHT22;26535;48.788;9.214;2023-07-31T10:42:46;24.90;68.80
40816;DHT22;26535;48.788;9.214;2023-07-31T10:45:13;24.60;70.00
40816;DHT22;26535;48.788;9.214;2023-07-31T10:47:46;24.50;69.50
40816;DHT22;26535;48.788;9.214;2023-07-31T10:52:37;25.30;68.30
40816;DHT22;26535;48.788;9.214;2023-07-31T10:58:20;25.40;67.30
40816;DHT22;26535;48.788;9.214;2023-07-31T11:00:49;25.40;67.70
40816;DHT22;26535;48.788;9.214;2023-07-31T11:03:18;25.40;67.80
40816;DHT22;26535;48.788;9.214;2023-07-31T11:08:25;25.50;67.10
40816;DHT22;26535;48.788;9.214;2023-07-31T11:13:26;26.00;65.70
40816;DHT22;26535;48.788;9.214;2023-07-31T11:15:52;26.30;66.30
40816;DHT22;26535;48.788;9.214;2023-07-31T11:18:18;26.50;65.30
40816;DHT22;26535;48.788;9.214;2023-07-31T11:20:44;26.40;65.70
40816;DHT22;26535;48.788;9.214;2023-07-31T11:23:10;26.00;65.20
40816;DHT22;26535;48.788;9.214;2023-07-31T11:25:38;25.80;65.60
40816;DHT22;26535;48.788;9.214;2023-07-31T11:28:10;25.60;66.60
40816;DHT22;26535;48.788;9.214;2023-07-31T11:30:37;24.90;68.10
40816;DHT22;26535;48.788;9.214;2023-07-31T11:33:04;24.80;68.40
40816;DHT22;26535;48.788;9.214;2023-07-31T11:35:44;24.80;68.70
40816;DHT22;26535;48.788;9.214;2023-07-31T11:38:12;25.00;68.10
40816;DHT22;26535;48.788;9.214;2023-07-31T11:40:44;24.70;68.20
40816;DHT22;26535;48.788;9.214;2023-07-31T11:43:10;24.60;69.10
40816;DHT22;26535;48.788;9.214;2023-07-31T11:45:46;24.60;69.50
40816;DHT22;26535;48.788;9.214;2023-07-31T11:48:19;24.40;69.60
40816;DHT22;26535;48.788;9.214;2023-07-31T11:50:45;24.60;70.10
40816;DHT22;26535;48.788;9.214;2023-07-31T11:53:13;24.70;69.30
40816;DHT22;26535;48.788;9.214;2023-07-31T11:55:39;24.70;69.80
40816;DHT22;26535;48.788;9.214;2023-07-31T11:58:05;25.20;68.60
40816;DHT22;26535;48.788;9.214;2023-07-31T12:00:31;25.20;68.00
40816;DHT22;26535;48.788;9.214;2023-07-31T12:02:57;25.30;68.00
40816;DHT22;26535;48.788;9.214;2023-07-31T12:05:23;25.80;67.80
40816;DHT22;26535;48.788;9.214;2023-07-31T12:07:53;26.50;66.30
40816;DHT22;26535;48.788;9.214;2023-07-31T12:10:24;26.50;66.00
40816;DHT22;26535;48.788;9.214;2023-07-31T12:13:04;26.40;66.60
40816;DHT22;26535;48.788;9.214;2023-07-31T12:15:37;26.40;66.00
40816;DHT22;26535;48.788;9.214;2023-07-31T12:18:05;26.20;66.60
40816;DHT22;26535;48.788;9.214;2023-07-31T12:20:32;26.00;67.10
40816;DHT22;26535;48.788;9.214;2023-07-31T12:22:57;26.00;67.10
40816;DHT22;26535;48.788;9.214;2023-07-31T12:25:31;25.50;67.60
40816;DHT22;26535;48.788;9.214;2023-07-31T12:27:57;25.30;68.80
40816;DHT22;26535;48.788;9.214;2023-07-31T12:30:41;25.50;68.30
40816;DHT22;26535;48.788;9.214;2023-07-31T12:33:16;25.70;68.00
40816;DHT22;26535;48.788;9.214;2023-07-31T12:35:45;25.70;68.60
40816;DHT22;26535;48.788;9.214;2023-07-31T12:38:12;25.40;68.10
40816;DHT22;26535;48.788;9.214;2023-07-31T12:40:39;25.30;68.40
40816;DHT22;26535;48.788;9.214;2023-07-31T12:43:06;25.20;68.90
40816;DHT22;26535;48.788;9.214;2023-07-31T12:45:32;25.10;69.40
40816;DHT22;26535;48.788;9.214;2023-07-31T12:47:59;25.00;69.00
40816;DHT22;26535;48.788;9.214;2023-07-31T12:50:25;25.00;69.70
40816;DHT22;26535;48.788;9.214;2023-07-31T12:52:54;25.00;68.70
40816;DHT22;26535;48.788;9.214;2023-07-31T12:55:21;24.90;69.40
40816;DHT22;26535;48.788;9.214;2023-07-31T12:57:47;24.90;68.60
40816;DHT22;26535;48.788;9.214;2023-07-31T13:00:13;24.90;69.00
40816;DHT22;26535;48.788;9.214;2023-07-31T13:02:39;24.90;69.50
40816;DHT22;26535;48.788;9.214;2023-07-31T13:05:04;24.90;69.00
40816;DHT22;26535;48.788;9.214;2023-07-31T13:07:30;24.90;68.50
40816;DHT22;26535;48.788;9.214;2023-07-31T13:09:56;24.90;68.20
40816;DHT22;26535;48.788;9.214;2023-07-31T13:12:22;25.00;67.90
40816;DHT22;26535;48.788;9.214;2023-07-31T13:14:47;24.70;68.50
40816;DHT22;26535;48.788;9.214;2023-07-31T13:17:13;24.70;69.30
40816;DHT22;26535;48.788;9.214;2023-07-31T13:19:39;24.80;69.20
40816;DHT22;26535;48.788;9.214;2023-07-31T13:22:05;24.80;69.20
40816;DHT22;26535;48.788;9.214;2023-07-31T13:24:30;25.10;68.80
40816;DHT22;26535;48.788;9.214;2023-07-31T13:26:57;25.40;69.00
40816;DHT22;26535;48.788;9.214;2023-07-31T13:29:22;25.60;67.80
40816;DHT22;26535;48.788;9.214;2023-07-31T13:31:49;25.80;67.40
40816;DHT22;26535;48.788;9.214;2023-07-31T13:34:15;25.90;66.80
40816;DHT22;26535;48.788;9.214;2023-07-31T13:36:40;26.30;67.20
40816;DHT22;26535;48.788;9.214;2023-07-31T13:39:07;26.60;65.20
40816;DHT22;26535;48.788;9.214;2023-07-31T13:41:33;27.10;64.50
40816;DHT22;26535;48.788;9.214;2023-07-31T13:43:58;27.90;63.00
40816;DHT22;26535;48.788;9.214;2023-07-31T13:46:24;28.10;62.30
40816;DHT22;26535;48.788;9.214;2023-07-31T13:48:51;27.90;63.30
40816;DHT22;26535;48.788;9.214;2023-07-31T13:51:20;27.40;63.40
40816;DHT22;26535;48.788;9.214;2023-07-31T13:53:46;27.10;64.40
40816;DHT22;26535;48.788;9.214;2023-07-31T13:56:12;26.80;65.00
40816;DHT22;26535;48.788;9.214;2023-07-31T13:58:37;26.80;65.40
40816;DHT22;26535;48.788;9.214;2023-07-31T14:01:03;26.90;65.70
40816;DHT22;26535;48.788;9.214;2023-07-31T14:03:29;27.30;64.90
40816;DHT22;26535;48.788;9.214;2023-07-31T14:05:55;27.30;64.60
40816;DHT22;26535;48.788;9.214;2023-07-31T14:08:21;27.20;64.40
40816;DHT22;26535;48.788;9.214;2023-07-31T14:10:47;26.80;65.00
40816;DHT22;26535;48.788;9.214;2023-07-31T14:13:13;26.70;65.20
40816;DHT22;26535;48.788;9.214;2023-07-31T14:15:41;26.70;66.10
40816;DHT22;26535;48.788;9.214;2023-07-31T14:18:07;26.60;66.30
40816;DHT22;26535;48.788;9.214;2023-07-31T14:20:33;26.70;66.10
40816;DHT22;26535;48.788;9.214;2023-07-31T14:22:59;26.60;66.50
40816;DHT22;26535;48.788;9.214;2023-07-31T14:25:24;27.00;66.40
40816;DHT22;26535;48.788;9.214;2023-07-31T14:27:50;27.00;65.10
40816;DHT22;26535;48.788;9.214;2023-07-31T14:30:16;27.10;65.50
40816;DHT22;26535;48.788;9.214;2023-07-31T14:32:42;26.90;65.40
40816;DHT22;26535;48.788;9.214;2023-07-31T14:35:08;27.10;66.00
40816;DHT22;26535;48.788;9.214;2023-07-31T14:37:41;26.90;66.00
40816;DHT22;26535;48.788;9.214;2023-07-31T14:40:08;26.90;65.80
40816;DHT22;26535;48.788;9.214;2023-07-31T14:42:34;26.70;66.10
40816;DHT22;26535;48.788;9.214;2023-07-31T14:45:00;26.70;66.80
40816;DHT22;26535;48.788;9.214;2023-07-31T14:47:26;26.70;66.60
40816;DHT22;26535;48.788;9.214;2023-07-31T14:49:52;27.10;66.20
40816;DHT22;26535;48.788;9.214;2023-07-31T14:52:18;27.00;66.30
40816;DHT22;26535;48.788;9.214;2023-07-31T14:54:44;27.50;65.40
40816;DHT22;26535;48.788;9.214;2023-07-31T14:57:10;27.90;65.20
40816;DHT22;26535;48.788;9.214;2023-07-31T14:59:39;28.10;64.50
40816;DHT22;26535;48.788;9.214;2023-07-31T15:02:05;28.40;64.10
40816;DHT22;26535;48.788;9.214;2023-07-31T15:04:31;29.00;62.60
40816;DHT22;26535;48.788;9.214;2023-07-31T15:06:56;29.00;60.90
40816;DHT22;26535;48.788;9.214;2023-07-31T15:09:22;29.30;61.40
40816;DHT22;26535;48.788;9.214;2023-07-31T15:11:48;28.90;61.50
40816;DHT22;26535;48.788;9.214;2023-07-31T15:14:14;28.60;62.10
40816;DHT22;26535;48.788;9.214;2023-07-31T15:16:39;29.30;61.30
40816;DHT22;26535;48.788;9.214;2023-07-31T15:19:05;30.60;59.80
40816;DHT22;26535;48.788;9.214;2023-07-31T15:21:31;31.50;58.10
40816;DHT22;26535;48.788;9.214;2023-07-31T15:23:56;31.70;57.00
40816;DHT22;26535;48.788;9.214;2023-07-31T15:26:22;31.60;56.40
40816;DHT22;26535;48.788;9.214;2023-07-31T15:28:50;31.80;56.80
40816;DHT22;26535;48.788;9.214;2023-07-31T15:31:21;32.40;56.30
40816;DHT22;26535;48.788;9.214;2023-07-31T15:33:48;32.30;55.90
40816;DHT22;26535;48.788;9.214;2023-07-31T15:36:14;33.30;55.20
40816;DHT22;26535;48.788;9.214;2023-07-31T15:38:39;33.60;54.70
40816;DHT22;26535;48.788;9.214;2023-07-31T15:41:05;33.30;54.20
40816;DHT22;26535;48.788;9.214;2023-07-31T15:43:31;33.40;54.30
40816;DHT22;26535;48.788;9.214;2023-07-31T15:45:58;33.10;54.20
40816;DHT22;26535;48.788;9.214;2023-07-31T15:48:23;32.20;55.20
40816;DHT22;26535;48.788;9.214;2023-07-31T15:50:49;31.70;55.90
40816;DHT22;26535;48.788;9.214;2023-07-31T15:53:15;32.10;56.60
40816;DHT22;26535;48.788;9.214;2023-07-31T15:55:40;33.70;54.70
40816;DHT22;26535;48.788;9.214;2023-07-31T15:58:06;34.00;53.60
40816;DHT22;26535;48.788;9.214;2023-07-31T16:00:38;34.00;53.90
40816;DHT22;26535;48.788;9.214;2023-07-31T16:03:04;33.30;53.70
40816;DHT22;26535;48.788;9.214;2023-07-31T16:05:29;34.20;54.50
40816;DHT22;26535;48.788;9.214;2023-07-31T16:07:55;35.50;52.40
40816;DHT22;26535;48.788;9.214;2023-07-31T16:10:21;35.40;51.70
40816;DHT22;26535;48.788;9.214;2023-07-31T16:12:47;34.40;52.20
40816;DHT22;26535;48.788;9.214;2023-07-31T16:15:13;34.00;53.40
40816;DHT22;26535;48.788;9.214;2023-07-31T16:17:38;34.30;52.70
40816;DHT22;26535;48.788;9.214;2023-07-31T16:20:04;34.00;53.30
40816;DHT22;26535;48.788;9.214;2023-07-31T16:22:32;35.30;52.40
40816;DHT22;26535;48.788;9.214;2023-07-31T16:24:58;34.80;51.80
40816;DHT22;26535;48.788;9.214;2023-07-31T16:27:23;33.00;53.50
40816;DHT22;26535;48.788;9.214;2023-07-31T16:29:50;32.00;55.10
40816;DHT22;26535;48.788;9.214;2023-07-31T16:32:16;31.10;56.10
40816;DHT22;26535;48.788;9.214;2023-07-31T16:34:41;30.20;57.60
40816;DHT22;26535;48.788;9.214;2023-07-31T16:37:07;29.70;60.70
40816;DHT22;26535;48.788;9.214;2023-07-31T16:39:33;29.90;58.40
40816;DHT22;26535;48.788;9.214;2023-07-31T16:42:04;30.70;57.60
40816;DHT22;26535;48.788;9.214;2023-07-31T16:44:30;31.60;56.10
40816;DHT22;26535;48.788;9.214;2023-07-31T16:46:56;31.90;55.60
40816;DHT22;26535;48.788;9.214;2023-07-31T16:49:21;30.80;57.00
40816;DHT22;26535;48.788;9.214;2023-07-31T16:51:53;29.80;58.20
40816;DHT22;26535;48.788;9.214;2023-07-31T16:54:18;28.70;60.20
40816;DHT22;26535;48.788;9.214;2023-07-31T16:56:44;27.80;62.00
40816;DHT22;26535;48.788;9.214;2023-07-31T16:59:11;27.10;64.00
40816;DHT22;26535;48.788;9.214;2023-07-31T17:01:36;26.60;64.80
40816;DHT22;26535;48.788;9.214;2023-07-31T17:04:02;26.10;65.80
40816;DHT22;26535;48.788;9.214;2023-07-31T17:06:28;25.90;66.70
40816;DHT22;26535;48.788;9.214;2023-07-31T17:08:54;25.80;67.00
40816;DHT22;26535;48.788;9.214;2023-07-31T17:11:23;25.50;67.40
40816;DHT22;26535;48.788;9.214;2023-07-31T17:13:49;25.30;68.10
40816;DHT22;26535;48.788;9.214;2023-07-31T17:16:16;25.20;69.00
40816;DHT22;26535;48.788;9.214;2023-07-31T17:18:42;25.20;68.70
40816;DHT22;26535;48.788;9.214;2023-07-31T17:21:08;25.00;69.10
40816;DHT22;26535;48.788;9.214;2023-07-31T17:23:34;24.70;69.60
40816;DHT22;26535;48.788;9.214;2023-07-31T17:26:00;24.60;70.10
40816;DHT22;26535;48.788;9.214;2023-07-31T17:28:26;24.40;70.60
40816;DHT22;26535;48.788;9.214;2023-07-31T17:30:51;24.40;70.80
40816;DHT22;26535;48.788;9.214;2023-07-31T17:33:17;24.40;71.80
40816;DHT22;26535;48.788;9.214;2023-07-31T17:35:43;24.40;71.30
40816;DHT22;26535;48.788;9.214;2023-07-31T17:38:09;24.40;71.00
40816;DHT22;26535;48.788;9.214;2023-07-31T17:40:35;24.30;71.30
40816;DHT22;26535;48.788;9.214;2023-07-31T17:43:03;24.30;71.60
40816;DHT22;26535;48.788;9.214;2023-07-31T17:45:29;24.20;71.40
40816;DHT22;26535;48.788;9.214;2023-07-31T17:47:55;24.20;71.70
40816;DHT22;26535;48.788;9.214;2023-07-31T17:50:21;24.10;72.00
40816;DHT22;26535;48.788;9.214;2023-07-31T17:52:47;24.00;72.20
40816;DHT22;26535;48.788;9.214;2023-07-31T17:55:15;24.00;72.10
40816;DHT22;26535;48.788;9.214;2023-07-31T17:57:41;23.90;72.80
40816;DHT22;26535;48.788;9.214;2023-07-31T18:00:07;24.00;73.90
40816;DHT22;26535;48.788;9.214;2023-07-31T18:02:33;24.00;72.70
40816;DHT22;26535;48.788;9.214;2023-07-31T18:05:01;23.90;73.10
40816;DHT22;26535;48.788;9.214;2023-07-31T18:07:27;23.90;73.00
40816;DHT22;26535;48.788;9.214;2023-07-31T18:09:53;23.90;72.90
40816;DHT22;26535;48.788;9.214;2023-07-31T18:12:18;23.70;73.00
40816;DHT22;26535;48.788;9.214;2023-07-31T18:14:44;23.70;74.80
40816;DHT22;26535;48.788;9.214;2023-07-31T18:17:10;23.80;75.50
40816;DHT22;26535;48.788;9.214;2023-07-31T18:19:37;23.80;74.00
40816;DHT22;26535;48.788;9.214;2023-07-31T18:22:03;23.70;73.90
40816;DHT22;26535;48.788;9.214;2023-07-31T18:24:28;23.60;75.10
40816;DHT22;26535;48.788;9.214;2023-07-31T18:26:54;23.50;74.80
40816;DHT22;26535;48.788;9.214;2023-07-31T18:29:20;23.50;75.60
40816;DHT22;26535;48.788;9.214;2023-07-31T18:31:45;23.50;75.00
40816;DHT22;26535;48.788;9.214;2023-07-31T18:34:11;23.50;75.00
40816;DHT22;26535;48.788;9.214;2023-07-31T18:36:37;23.40;76.20
40816;DHT22;26535;48.788;9.214;2023-07-31T18:39:06;23.40;76.30
40816;DHT22;26535;48.788;9.214;2023-07-31T18:41:32;23.30;76.90
40816;DHT22;26535;48.788;9.214;2023-07-31T18:43:58;23.30;77.70
40816;DHT22;26535;48.788;9.214;2023-07-31T18:46:23;23.20;78.20
40816;DHT22;26535;48.788;9.214;2023-07-31T18:48:49;23.20;79.40
40816;DHT22;26535;48.788;9.214;2023-07-31T18:51:15;23.10;80.10
40816;DHT22;26535;48.788;9.214;2023-07-31T18:53:41;23.10;83.60
40816;DHT22;26535;48.788;9.214;2023-07-31T18:56:06;23.00;83.20
40816;DHT22;26535;48.788;9.214;2023-07-31T18:58:32;22.90;85.00
40816;DHT22;26535;48.788;9.214;2023-07-31T19:00:58;22.80;84.60
40816;DHT22;26535;48.788;9.214;2023-07-31T19:03:23;22.60;87.30
40816;DHT22;26535;48.788;9.214;2023-07-31T19:05:50;22.50;89.80
40816;DHT22;26535;48.788;9.214;2023-07-31T19:08:16;22.50;90.50
40816;DHT22;26535;48.788;9.214;2023-07-31T19:10:42;22.30;88.80
40816;DHT22;26535;48.788;9.214;2023-07-31T19:13:08;22.10;90.50
40816;DHT22;26535;48.788;9.214;2023-07-31T19:15:35;21.80;91.80
40816;DHT22;26535;48.788;9.214;2023-07-31T19:18:01;21.70;91.50
40816;DHT22;26535;48.788;9.214;2023-07-31T19:20:29;21.60;91.80
40816;DHT22;26535;48.788;9.214;2023-07-31T19:22:55;21.40;93.10
40816;DHT22;26535;48.788;9.214;2023-07-31T19:25:21;21.20;94.20
40816;DHT22;26535;48.788;9.214;2023-07-31T19:27:47;21.00;94.00
40816;DHT22;26535;48.788;9.214;2023-07-31T19:30:13;20.80;94.10
40816;DHT22;26535;48.788;9.214;2023-07-31T19:32:39;20.70;94.80
40816;DHT22;26535;48.788;9.214;2023-07-31T19:35:05;20.60;94.60
40816;DHT22;26535;48.788;9.214;2023-07-31T19:37:30;20.60;95.50
40816;DHT22;26535;48.788;9.214;2023-07-31T19:39:56;20.60;95.60
40816;DHT22;26535;48.788;9.214;2023-07-31T19:42:22;20.40;95.70
40816;DHT22;26535;48.788;9.214;2023-07-31T19:44:48;20.40;96.10
40816;DHT22;26535;48.788;9.214;2023-07-31T19:47:13;20.40;96.30
40816;DHT22;26535;48.788;9.214;2023-07-31T19:49:39;20.30;96.50
40816;DHT22;26535;48.788;9.214;2023-07-31T19:52:05;20.20;97.40
40816;DHT22;26535;48.788;9.214;2023-07-31T19:54:31;20.10;97.30
40816;DHT22;26535;48.788;9.214;2023-07-31T19:56:56;20.10;97.50
40816;DHT22;26535;48.788;9.214;2023-07-31T19:59:23;20.00;98.10
40816;DHT22;26535;48.788;9.214;2023-07-31T20:01:50;19.90;98.60
40816;DHT22;26535;48.788;9.214;2023-07-31T20:04:16;19.90;98.50
40816;DHT22;26535;48.788;9.214;2023-07-31T20:06:42;19.80;99.10
40816;DHT22;26535;48.788;9.214;2023-07-31T20:09:08;19.90;99.60
40816;DHT22;26535;48.788;9.214;2023-07-31T20:11:33;19.80;99.90
40816;DHT22;26535;48.788;9.214;2023-07-31T20:14:07;19.70;99.90
40816;DHT22;26535;48.788;9.214;2023-07-31T20:16:33;19.80;99.90
40816;DHT22;26535;48.788;9.214;2023-07-31T20:19:03;19.70;99.90
40816;DHT22;26535;48.788;9.214;2023-07-31T20:21:29;19.70;99.90
40816;DHT22;26535;48.788;9.214;2023-07-31T20:23:55;19.70;99.90
40816;DHT22;26535;48.788;9.214;2023-07-31T20:26:21;19.70;99.90
40816;DHT22;26535;48.788;9.214;2023-07-31T20:28:46;19.70;99.90
40816;DHT22;26535;48.788;9.214;2023-07-31T20:31:12;19.60;99.90
40816;DHT22;26535;48.788;9.214;2023-07-31T20:33:38;19.50;99.90
40816;DHT22;26535;48.788;9.214;2023-07-31T20:36:04;19.40;99.90
40816;DHT22;26535;48.788;9.214;2023-07-31T20:38:31;19.30;99.90
40816;DHT22;26535;48.788;9.214;2023-07-31T20:40:56;19.30;99.90
40816;DHT22;26535;48.788;9.214;2023-07-31T20:43:22;19.20;99.90
40816;DHT22;26535;48.788;9.214;2023-07-31T20:45:48;19.20;99.90
40816;DHT22;26535;48.788;9.214;2023-07-31T20:48:14;19.20;99.90
40816;DHT22;26535;48.788;9.214;2023-07-31T20:50:40;19.10;99.90
40816;DHT22;26535;48.788;9.214;2023-07-31T20:53:06;19.10;99.90
40816;DHT22;26535;48.788;9.214;2023-07-31T20:55:32;19.10;99.90
40816;DHT22;26535;48.788;9.214;2023-07-31T20:57:58;19.10;99.90
40816;DHT22;26535;48.788;9.214;2023-07-31T21:00:23;19.10;99.90
40816;DHT22;26535;48.788;9.214;2023-07-31T21:02:49;19.10;99.90
40816;DHT22;26535;48.788;9.214;2023-07-31T21:05:15;19.10;99.90
40816;DHT22;26535;48.788;9.214;2023-07-31T21:07:40;19.00;99.90